Main page
METAR-TAF:

METAR-TAF

Airports :

Colorado City Municipal Airport

Colorado City, Arizona, United States

latitude: 36-57-36N, longitude: 113-00-50W, elevation: 4874 ft

Current weather observation

The report was made 29 minutes ago, at 05:35 UTC
Wind 6 mph from the East/Southeast
Temperature 41°F
Humidity 56%
Pressure 30.00 in. Hg
Visibility: 10 miles
Clear sky

METAR: KAZC 020535Z AUTO 12005KT 10SM CLR 05/M03 A3000 RMK AO2

Time: 23:04 (06:04 UTC)


TAF: missing

Weather observations and forecasts of more than 4000 airports (METAR and TAF reports).

The available stations are represented by yellow and red dots on the map.

Hover mouse over dot to see the name of the station.

Then click to see weather observations and forecasts.

To change the map : click on the green buttons with a black cross to zoom in, on the green button with a dash to zoom out, or on the green arrows for adjacent maps.


METAR-TAF: